createdAt,value
2023-05-23T00:02:16.926Z,14.60
2023-05-23T00:04:46.248Z,14.50
2023-05-23T00:07:14.359Z,14.60
2023-05-23T00:09:42.840Z,14.50
2023-05-23T00:12:15.925Z,14.50
2023-05-23T00:14:47.915Z,14.50
2023-05-23T00:17:17.698Z,14.40
2023-05-23T00:19:46.591Z,14.40
2023-05-23T00:22:16.841Z,14.30
2023-05-23T00:24:45.618Z,14.40
2023-05-23T00:27:15.513Z,14.40
2023-05-23T00:29:43.643Z,14.30
2023-05-23T00:32:12.849Z,14.30
2023-05-23T00:34:42.428Z,14.30
2023-05-23T00:37:13.431Z,14.20
2023-05-23T00:39:41.700Z,14.10
2023-05-23T00:42:10.408Z,14.10
2023-05-23T00:44:38.873Z,14.10
2023-05-23T00:47:08.565Z,14.00
2023-05-23T00:49:39.519Z,14.00
2023-05-23T00:52:09.104Z,14.10
2023-05-23T00:54:38.879Z,14.10
2023-05-23T00:57:08.050Z,14.10
2023-05-23T00:59:39.156Z,14.00
2023-05-23T01:02:07.603Z,14.00
2023-05-23T01:04:39.577Z,13.90
2023-05-23T01:07:10.874Z,13.90
2023-05-23T01:09:42.381Z,13.90
2023-05-23T01:12:23.546Z,13.80
2023-05-23T01:15:00.754Z,13.70
2023-05-23T01:17:42.914Z,13.70
2023-05-23T01:20:14.859Z,13.70
2023-05-23T01:23:01.901Z,13.70
2023-05-23T01:25:48.227Z,13.60
2023-05-23T01:28:19.740Z,13.60
2023-05-23T01:30:53.301Z,13.60
2023-05-23T01:33:23.822Z,13.60
2023-05-23T01:35:52.932Z,13.50
2023-05-23T01:38:25.875Z,13.50
2023-05-23T01:40:55.130Z,13.50
2023-05-23T01:43:26.020Z,13.40
2023-05-23T01:45:57.886Z,13.40
2023-05-23T01:48:29.890Z,13.40
2023-05-23T01:51:01.062Z,13.40
2023-05-23T01:53:30.314Z,13.40
2023-05-23T01:56:03.894Z,13.30
2023-05-23T01:58:35.920Z,13.40
2023-05-23T02:01:04.201Z,13.40
2023-05-23T02:03:32.416Z,13.40
2023-05-23T02:06:00.636Z,13.30
2023-05-23T02:08:29.816Z,13.30
2023-05-23T02:10:58.876Z,13.20
2023-05-23T02:13:27.004Z,13.30
2023-05-23T02:15:56.523Z,13.10
2023-05-23T02:18:26.323Z,13.10
2023-05-23T02:20:54.798Z,13.00
2023-05-23T02:23:24.050Z,13.00
2023-05-23T02:25:52.217Z,13.00
2023-05-23T02:28:21.918Z,13.10
2023-05-23T02:30:50.988Z,13.10
2023-05-23T02:33:23.285Z,13.00
2023-05-23T02:35:52.982Z,13.00
2023-05-23T02:38:22.633Z,13.00
2023-05-23T02:40:52.954Z,12.90
2023-05-23T02:43:21.466Z,12.90
2023-05-23T02:45:49.547Z,12.90
2023-05-23T02:48:20.930Z,12.90
2023-05-23T02:50:49.319Z,12.90
2023-05-23T02:53:17.924Z,12.90
2023-05-23T02:55:47.553Z,12.90
2023-05-23T02:58:16.375Z,12.90
2023-05-23T03:00:46.932Z,12.90
2023-05-23T03:03:15.211Z,12.80
2023-05-23T03:05:45.047Z,12.80
2023-05-23T03:08:15.997Z,12.80
2023-05-23T03:10:44.305Z,12.80
2023-05-23T03:13:12.995Z,12.80
2023-05-23T03:15:41.633Z,12.80
2023-05-23T03:18:11.351Z,12.80
2023-05-23T03:20:39.788Z,12.80
2023-05-23T03:23:09.275Z,12.80
2023-05-23T03:25:39.156Z,12.80
2023-05-23T03:28:07.983Z,12.70
2023-05-23T03:30:36.962Z,12.80
2023-05-23T03:33:05.397Z,12.80
2023-05-23T03:35:34.989Z,12.80
2023-05-23T03:38:03.665Z,12.80
2023-05-23T03:40:35.509Z,12.90
2023-05-23T03:43:06.528Z,12.90
2023-05-23T03:45:40.260Z,12.90
2023-05-23T03:48:14.981Z,13.00
2023-05-23T03:50:47.871Z,13.00
2023-05-23T03:53:16.159Z,13.10
2023-05-23T03:55:48.989Z,13.20
2023-05-23T03:58:18.002Z,13.20
2023-05-23T04:00:49.768Z,13.20
2023-05-23T04:03:19.143Z,13.30
2023-05-23T04:05:47.680Z,13.30
2023-05-23T04:08:16.046Z,13.40
2023-05-23T04:10:45.191Z,13.50
2023-05-23T04:13:15.406Z,13.60
2023-05-23T04:15:46.088Z,13.60
2023-05-23T04:18:15.528Z,13.60
2023-05-23T04:20:44.546Z,13.70
2023-05-23T04:23:13.546Z,13.70
2023-05-23T04:25:43.975Z,13.80
2023-05-23T04:28:22.711Z,13.90
2023-05-23T04:30:52.053Z,14.00
2023-05-23T04:33:24.022Z,14.10
2023-05-23T04:35:52.986Z,14.10
2023-05-23T04:38:25.160Z,14.30
2023-05-23T04:40:55.560Z,14.40
2023-05-23T04:43:46.103Z,14.50
2023-05-23T04:46:27.091Z,14.60
2023-05-23T04:49:15.016Z,14.70
2023-05-23T04:51:44.110Z,14.80
2023-05-23T04:54:33.197Z,15.00
2023-05-23T04:57:10.006Z,15.10
2023-05-23T04:59:39.577Z,15.20
2023-05-23T05:02:07.986Z,15.30
2023-05-23T05:04:37.435Z,15.40
2023-05-23T05:07:07.924Z,15.50
2023-05-23T05:09:37.868Z,15.60
2023-05-23T05:12:06.453Z,15.70
2023-05-23T05:14:34.984Z,15.80
2023-05-23T05:17:05.055Z,15.90
2023-05-23T05:19:42.987Z,16.00
2023-05-23T05:22:11.183Z,16.00
2023-05-23T05:24:40.742Z,16.10
2023-05-23T05:27:11.708Z,16.20
2023-05-23T05:29:40.008Z,16.30
2023-05-23T05:32:09.784Z,16.40
2023-05-23T05:34:39.236Z,16.40
2023-05-23T05:37:11.309Z,16.50
2023-05-23T05:39:41.580Z,16.60
2023-05-23T05:42:10.122Z,16.60
2023-05-23T05:44:39.280Z,16.70
2023-05-23T05:47:09.295Z,16.80
2023-05-23T05:49:39.037Z,16.90
2023-05-23T05:52:08.242Z,16.90
2023-05-23T05:54:37.701Z,17.00
2023-05-23T05:57:06.571Z,17.20
2023-05-23T05:59:34.692Z,17.30
2023-05-23T06:02:03.017Z,17.30
2023-05-23T06:04:35.435Z,17.40
2023-05-23T06:07:05.045Z,17.40
2023-05-23T06:09:33.561Z,17.50
2023-05-23T06:12:03.041Z,17.50
2023-05-23T06:14:31.213Z,17.60
2023-05-23T06:17:03.630Z,17.70
2023-05-23T06:19:31.887Z,17.80
2023-05-23T06:22:02.401Z,18.00
2023-05-23T06:24:31.106Z,17.90
2023-05-23T06:26:59.293Z,17.90
2023-05-23T06:29:33.419Z,18.00
2023-05-23T06:32:03.046Z,18.10
2023-05-23T06:34:32.427Z,18.20
2023-05-23T06:37:02.413Z,18.30
2023-05-23T06:39:33.748Z,18.40
2023-05-23T06:42:02.894Z,18.50
2023-05-23T06:44:43.136Z,18.50
2023-05-23T06:47:13.009Z,18.60
2023-05-23T06:49:41.205Z,18.80
2023-05-23T06:52:10.918Z,18.80
2023-05-23T06:54:43.549Z,18.90
2023-05-23T06:57:12.583Z,19.00
2023-05-23T06:59:41.161Z,19.00
2023-05-23T07:02:09.428Z,19.10
2023-05-23T07:04:37.941Z,19.20
2023-05-23T07:07:13.552Z,19.20
2023-05-23T07:09:42.676Z,19.20
2023-05-23T07:12:15.969Z,19.20
2023-05-23T07:14:45.863Z,19.30
2023-05-23T07:17:15.775Z,19.30
2023-05-23T07:19:45.507Z,19.40
2023-05-23T07:22:14.971Z,19.50
2023-05-23T07:24:46.513Z,19.60
2023-05-23T07:27:15.895Z,19.60
2023-05-23T07:29:45.010Z,19.70
2023-05-23T07:32:13.216Z,19.70
2023-05-23T07:34:41.398Z,19.80
2023-05-23T07:37:10.052Z,19.80
2023-05-23T07:39:45.464Z,19.90
2023-05-23T07:42:13.877Z,20.00
2023-05-23T07:44:43.112Z,20.10
2023-05-23T07:47:11.487Z,20.20
2023-05-23T07:49:43.073Z,20.30
2023-05-23T07:52:11.249Z,20.30
2023-05-23T07:54:40.278Z,20.40
2023-05-23T07:57:11.908Z,20.40
2023-05-23T07:59:41.051Z,20.40
2023-05-23T08:02:11.031Z,20.40
2023-05-23T08:04:41.381Z,20.50
2023-05-23T08:07:10.088Z,20.60
2023-05-23T08:09:48.683Z,20.60
2023-05-23T08:12:21.474Z,20.60
2023-05-23T08:14:54.568Z,20.80
2023-05-23T08:17:30.233Z,20.90
2023-05-23T08:20:02.138Z,20.90
2023-05-23T08:22:31.848Z,20.90
2023-05-23T08:25:00.056Z,20.90
2023-05-23T08:27:32.363Z,21.00
2023-05-23T08:30:11.565Z,21.00
2023-05-23T08:32:40.207Z,21.10
2023-05-23T08:35:09.255Z,21.20
2023-05-23T08:37:38.742Z,21.20
2023-05-23T08:40:15.047Z,21.30
2023-05-23T08:42:49.095Z,21.30
2023-05-23T08:45:17.946Z,21.40
2023-05-23T08:47:47.750Z,21.40
2023-05-23T08:50:23.450Z,21.40
2023-05-23T08:52:56.952Z,21.50
2023-05-23T08:55:27.846Z,21.50
2023-05-23T08:58:01.936Z,21.60
2023-05-23T09:00:49.199Z,21.60
2023-05-23T09:03:21.195Z,21.60
2023-05-23T09:06:14.474Z,21.70
2023-05-23T09:08:46.054Z,21.70
2023-05-23T09:11:15.789Z,21.80
2023-05-23T09:13:51.263Z,21.80
2023-05-23T09:16:21.329Z,21.80
2023-05-23T09:18:52.928Z,21.90
2023-05-23T09:21:25.380Z,22.00
2023-05-23T09:24:08.879Z,22.00
2023-05-23T09:26:38.406Z,22.00
2023-05-23T09:29:08.539Z,22.10
2023-05-23T09:31:37.161Z,22.30
2023-05-23T09:34:07.016Z,22.40
2023-05-23T09:36:36.549Z,22.50
2023-05-23T09:39:06.570Z,22.60
2023-05-23T09:41:35.710Z,22.60
2023-05-23T09:44:09.512Z,22.60
2023-05-23T09:46:38.893Z,22.80
2023-05-23T09:49:19.190Z,22.80
2023-05-23T09:51:59.128Z,22.80
2023-05-23T09:54:28.185Z,22.80
2023-05-23T09:56:57.798Z,22.80
2023-05-23T09:59:33.177Z,22.90
2023-05-23T10:02:03.621Z,22.90
2023-05-23T10:04:35.400Z,23.10
2023-05-23T10:07:08.567Z,23.20
2023-05-23T10:09:40.838Z,23.30
2023-05-23T10:12:46.039Z,23.40
2023-05-23T10:15:18.302Z,23.60
2023-05-23T10:18:03.841Z,23.40
2023-05-23T10:20:37.468Z,23.40
2023-05-23T10:23:06.396Z,23.40
2023-05-23T10:25:37.251Z,23.50
2023-05-23T10:28:06.642Z,23.60
2023-05-23T10:30:37.218Z,23.60
2023-05-23T10:33:06.590Z,23.80
2023-05-23T10:35:48.275Z,23.90
2023-05-23T10:38:29.343Z,24.00
2023-05-23T10:41:10.259Z,24.00
2023-05-23T10:43:48.696Z,24.00
2023-05-23T10:46:22.545Z,24.00
2023-05-23T10:48:57.401Z,23.90
2023-05-23T10:51:26.934Z,24.00
2023-05-23T10:53:56.210Z,24.10
2023-05-23T10:56:25.366Z,24.10
2023-05-23T10:58:55.152Z,24.20
2023-05-23T11:01:25.587Z,24.30
2023-05-23T11:03:56.145Z,24.40
2023-05-23T11:06:33.180Z,24.50
2023-05-23T11:09:07.592Z,24.60
2023-05-23T11:12:03.219Z,24.60
2023-05-23T11:14:38.110Z,24.70
2023-05-23T11:17:18.721Z,24.70
2023-05-23T11:20:07.410Z,24.70
2023-05-23T11:22:40.324Z,24.90
2023-05-23T11:25:10.200Z,24.90
2023-05-23T11:27:40.758Z,24.80
2023-05-23T11:30:11.109Z,24.80
2023-05-23T11:32:41.233Z,24.80
2023-05-23T11:35:12.268Z,24.70
2023-05-23T11:37:41.240Z,24.60
2023-05-23T11:40:30.281Z,24.60
2023-05-23T11:43:03.691Z,24.70
2023-05-23T11:45:33.298Z,24.80
2023-05-23T11:48:08.341Z,24.80
2023-05-23T11:50:45.591Z,24.90
2023-05-23T11:53:14.231Z,24.90
2023-05-23T11:55:49.428Z,25.20
2023-05-23T11:58:18.259Z,25.40
2023-05-23T12:00:46.690Z,25.50
2023-05-23T12:03:19.630Z,25.50
2023-05-23T12:05:48.039Z,25.50
2023-05-23T12:08:17.255Z,25.70
2023-05-23T12:10:54.284Z,25.80
2023-05-23T12:13:26.153Z,26.00
2023-05-23T12:15:56.462Z,26.10
2023-05-23T12:18:29.226Z,26.20
2023-05-23T12:21:02.280Z,26.30
2023-05-23T12:23:33.840Z,26.40
2023-05-23T12:26:07.719Z,26.60
2023-05-23T12:28:37.502Z,26.70
2023-05-23T12:31:12.844Z,26.90
2023-05-23T12:33:44.064Z,27.00
2023-05-23T12:36:14.295Z,27.00
2023-05-23T12:38:46.316Z,27.20
2023-05-23T12:41:19.616Z,27.40
2023-05-23T12:43:53.284Z,27.50
2023-05-23T12:46:22.363Z,27.40
2023-05-23T12:48:52.854Z,27.60
2023-05-23T12:51:24.252Z,27.80
2023-05-23T12:53:56.355Z,27.80
2023-05-23T12:56:24.547Z,27.50
2023-05-23T12:58:54.307Z,27.50
2023-05-23T13:01:22.881Z,27.60
2023-05-23T13:03:53.149Z,27.40
2023-05-23T13:06:21.685Z,27.20
2023-05-23T13:08:50.833Z,27.10
2023-05-23T13:11:19.326Z,27.30
2023-05-23T13:13:48.142Z,27.90
2023-05-23T13:16:22.848Z,29.20
2023-05-23T13:18:53.661Z,30.70
2023-05-23T13:21:22.207Z,31.70
2023-05-23T13:23:50.351Z,31.60
2023-05-23T13:26:19.104Z,31.40
2023-05-23T13:28:47.381Z,30.70
2023-05-23T13:31:15.642Z,30.50
2023-05-23T13:33:47.138Z,30.50
2023-05-23T13:36:16.682Z,30.70
2023-05-23T13:38:45.519Z,31.40
2023-05-23T13:41:16.241Z,32.80
2023-05-23T13:43:48.381Z,34.70
2023-05-23T13:46:16.595Z,36.20
2023-05-23T13:48:44.807Z,35.80
2023-05-23T13:51:13.130Z,36.40
2023-05-23T13:53:44.937Z,36.50
2023-05-23T13:56:16.420Z,36.90
2023-05-23T13:58:46.700Z,36.50
2023-05-23T14:01:18.095Z,37.20
2023-05-23T14:03:47.378Z,37.50
2023-05-23T14:06:16.360Z,37.50
2023-05-23T14:08:46.580Z,38.10
2023-05-23T14:11:18.287Z,39.30
2023-05-23T14:13:46.545Z,39.10
2023-05-23T14:16:14.653Z,39.40
2023-05-23T14:18:42.960Z,39.00
2023-05-23T14:21:13.707Z,40.00
2023-05-23T14:23:42.237Z,39.80
2023-05-23T14:26:11.758Z,39.40
2023-05-23T14:28:39.932Z,39.10
2023-05-23T14:31:08.944Z,38.70
2023-05-23T14:33:37.164Z,39.50
2023-05-23T14:36:06.349Z,39.10
2023-05-23T14:38:34.553Z,39.90
2023-05-23T14:41:02.778Z,39.40
2023-05-23T14:43:34.442Z,38.20
2023-05-23T14:46:02.805Z,37.90
2023-05-23T14:48:31.596Z,37.40
2023-05-23T14:51:01.965Z,37.30
2023-05-23T14:53:30.305Z,38.00
2023-05-23T14:56:02.401Z,38.00
2023-05-23T14:58:31.924Z,39.60
2023-05-23T15:01:03.379Z,42.10
2023-05-23T15:03:31.885Z,42.90
2023-05-23T15:06:00.446Z,43.00
2023-05-23T15:08:30.414Z,42.60
2023-05-23T15:10:58.947Z,42.20
2023-05-23T15:13:27.202Z,41.60
2023-05-23T15:15:56.723Z,41.10
2023-05-23T15:18:39.006Z,40.50
2023-05-23T15:21:09.388Z,40.10
2023-05-23T15:23:37.707Z,39.60
2023-05-23T15:26:06.337Z,39.70
2023-05-23T15:28:34.523Z,40.10
2023-05-23T15:31:04.173Z,40.90
2023-05-23T15:33:32.375Z,42.00
2023-05-23T15:36:01.237Z,43.20
2023-05-23T15:38:30.423Z,44.10
2023-05-23T15:40:59.464Z,45.10
2023-05-23T15:43:28.395Z,45.70
2023-05-23T15:45:56.790Z,46.20
2023-05-23T15:48:26.653Z,46.40
2023-05-23T15:50:55.127Z,46.50
2023-05-23T15:53:23.666Z,45.70
2023-05-23T15:55:52.437Z,44.00
2023-05-23T15:58:22.482Z,43.30
2023-05-23T16:00:50.733Z,43.60
2023-05-23T16:03:18.997Z,43.50
2023-05-23T16:05:48.851Z,43.30
2023-05-23T16:08:16.980Z,42.80
2023-05-23T16:10:45.320Z,42.40
2023-05-23T16:13:16.817Z,41.80
2023-05-23T16:15:46.150Z,41.70
2023-05-23T16:18:15.489Z,41.10
2023-05-23T16:20:43.661Z,40.20
2023-05-23T16:23:13.424Z,39.20
2023-05-23T16:25:43.006Z,38.30
2023-05-23T16:28:11.512Z,37.50
2023-05-23T16:30:40.364Z,37.30
2023-05-23T16:33:08.573Z,37.80
2023-05-23T16:35:39.321Z,38.10
2023-05-23T16:38:07.644Z,38.00
2023-05-23T16:40:37.145Z,37.60
2023-05-23T16:43:06.337Z,36.80
2023-05-23T16:45:34.799Z,35.60
2023-05-23T16:48:02.983Z,34.70
2023-05-23T16:50:31.226Z,33.90
2023-05-23T16:53:00.178Z,33.20
2023-05-23T16:55:28.305Z,32.60
2023-05-23T16:57:58.196Z,31.90
2023-05-23T17:00:28.123Z,31.20
2023-05-23T17:02:56.431Z,30.60
2023-05-23T17:05:24.881Z,30.00
2023-05-23T17:07:53.027Z,29.60
2023-05-23T17:10:21.264Z,29.20
2023-05-23T17:12:49.430Z,28.80
2023-05-23T17:15:22.357Z,28.60
2023-05-23T17:17:50.628Z,28.30
2023-05-23T17:20:23.955Z,28.00
2023-05-23T17:22:52.698Z,27.80
2023-05-23T17:25:20.925Z,27.50
2023-05-23T17:27:52.210Z,27.30
2023-05-23T17:30:22.073Z,27.10
2023-05-23T17:32:50.579Z,26.80
2023-05-23T17:35:18.891Z,26.60
2023-05-23T17:37:47.311Z,26.40
2023-05-23T17:40:16.845Z,26.20
2023-05-23T17:42:45.675Z,26.10
2023-05-23T17:45:13.809Z,25.90
2023-05-23T17:47:43.377Z,25.80
2023-05-23T17:50:13.083Z,25.60
2023-05-23T17:52:41.743Z,25.50
2023-05-23T17:55:13.530Z,25.40
2023-05-23T17:57:41.603Z,25.30
2023-05-23T18:00:11.535Z,25.20
2023-05-23T18:02:44.531Z,25.00
2023-05-23T18:05:13.174Z,24.90
2023-05-23T18:07:41.554Z,24.70
2023-05-23T18:10:10.596Z,24.60
2023-05-23T18:12:38.850Z,24.40
2023-05-23T18:15:11.301Z,24.30
2023-05-23T18:17:42.527Z,24.20
2023-05-23T18:20:16.081Z,24.00
2023-05-23T18:22:44.228Z,23.90
2023-05-23T18:25:19.337Z,23.80
2023-05-23T18:27:47.492Z,23.70
2023-05-23T18:30:16.114Z,23.60
2023-05-23T18:32:46.069Z,23.50
2023-05-23T18:35:15.837Z,23.40
2023-05-23T18:37:45.572Z,23.30
2023-05-23T18:40:13.869Z,23.20
2023-05-23T18:42:42.077Z,23.10
2023-05-23T18:45:12.231Z,23.00
2023-05-23T18:47:40.506Z,22.90
2023-05-23T18:50:09.563Z,22.80
2023-05-23T18:52:39.097Z,22.70
2023-05-23T18:55:08.292Z,22.60
2023-05-23T18:57:36.629Z,22.50
2023-05-23T19:00:05.778Z,22.40
2023-05-23T19:02:34.031Z,22.40
2023-05-23T19:05:02.653Z,22.30
2023-05-23T19:07:34.643Z,22.30
2023-05-23T19:10:04.310Z,22.20
2023-05-23T19:12:35.485Z,22.20
2023-05-23T19:15:04.573Z,22.10
2023-05-23T19:17:32.989Z,22.00
2023-05-23T19:20:02.231Z,21.90
2023-05-23T19:22:39.003Z,21.90
2023-05-23T19:25:14.500Z,21.90
2023-05-23T19:27:42.692Z,21.80
2023-05-23T19:30:12.025Z,21.70
2023-05-23T19:32:40.614Z,21.70
2023-05-23T19:35:09.519Z,21.60
2023-05-23T19:37:38.676Z,21.60
2023-05-23T19:40:08.740Z,21.60
2023-05-23T19:42:41.617Z,21.50
2023-05-23T19:45:10.680Z,21.50
2023-05-23T19:47:38.907Z,21.40
2023-05-23T19:50:08.464Z,21.40
2023-05-23T19:52:36.603Z,21.40
2023-05-23T19:55:08.502Z,21.30
2023-05-23T19:57:37.193Z,21.30
2023-05-23T20:00:09.987Z,21.20
2023-05-23T20:02:38.583Z,21.20
2023-05-23T20:05:09.632Z,21.10
2023-05-23T20:07:37.827Z,21.10
2023-05-23T20:10:10.700Z,21.00
2023-05-23T20:12:38.942Z,21.00
2023-05-23T20:15:09.778Z,20.90
2023-05-23T20:17:38.638Z,20.90
2023-05-23T20:20:08.846Z,20.90
2023-05-23T20:22:37.227Z,20.80
2023-05-23T20:25:06.541Z,20.80
2023-05-23T20:27:34.755Z,20.80
2023-05-23T20:30:09.763Z,20.70
2023-05-23T20:32:37.978Z,20.70
2023-05-23T20:35:07.376Z,20.60
2023-05-23T20:37:40.044Z,20.60
2023-05-23T20:40:09.711Z,20.50
2023-05-23T20:42:37.901Z,20.50
2023-05-23T20:45:09.556Z,20.50
2023-05-23T20:47:41.321Z,20.50
2023-05-23T20:50:14.339Z,20.40
2023-05-23T20:52:43.269Z,20.40
2023-05-23T20:55:11.862Z,20.30
2023-05-23T20:57:40.634Z,20.30
2023-05-23T21:00:13.186Z,20.30
2023-05-23T21:02:42.518Z,20.20
2023-05-23T21:05:12.432Z,20.20
2023-05-23T21:07:43.660Z,20.10
2023-05-23T21:10:12.602Z,20.10
2023-05-23T21:12:47.034Z,20.10
2023-05-23T21:15:16.646Z,20.10
2023-05-23T21:17:44.974Z,20.00
2023-05-23T21:20:13.480Z,20.00
2023-05-23T21:22:42.641Z,20.00
2023-05-23T21:25:11.684Z,20.00
2023-05-23T21:27:39.831Z,19.90
2023-05-23T21:30:09.322Z,19.90
2023-05-23T21:32:41.706Z,19.90
2023-05-23T21:35:10.731Z,19.80
2023-05-23T21:37:38.917Z,19.80
2023-05-23T21:40:08.575Z,19.80
2023-05-23T21:42:36.869Z,19.80
2023-05-23T21:45:08.554Z,19.80
2023-05-23T21:47:36.839Z,19.80
2023-05-23T21:50:07.510Z,19.70
2023-05-23T21:52:35.756Z,19.70
2023-05-23T21:55:03.965Z,19.70
2023-05-23T21:57:32.073Z,19.70
2023-05-23T22:00:01.674Z,19.70
2023-05-23T22:02:29.946Z,19.70
2023-05-23T22:04:58.348Z,19.70
2023-05-23T22:07:27.761Z,19.60
2023-05-23T22:09:56.963Z,19.60
2023-05-23T22:12:25.564Z,19.60
2023-05-23T22:14:54.809Z,19.60
2023-05-23T22:17:23.758Z,19.60
2023-05-23T22:19:52.941Z,19.60
2023-05-23T22:22:21.101Z,19.50
2023-05-23T22:24:51.833Z,19.50
2023-05-23T22:27:20.273Z,19.50
2023-05-23T22:29:49.594Z,19.50
2023-05-23T22:32:17.805Z,19.50
2023-05-23T22:34:46.352Z,19.50
2023-05-23T22:37:18.507Z,19.40
2023-05-23T22:39:46.674Z,19.40
2023-05-23T22:42:16.574Z,19.40
2023-05-23T22:44:44.722Z,19.30
2023-05-23T22:47:13.699Z,19.30
2023-05-23T22:49:46.368Z,19.30
2023-05-23T22:52:14.589Z,19.30
2023-05-23T22:54:42.769Z,19.30
2023-05-23T22:57:10.914Z,19.30
2023-05-23T22:59:40.621Z,19.30
2023-05-23T23:02:08.982Z,19.20
2023-05-23T23:04:38.318Z,19.20
2023-05-23T23:07:06.718Z,19.20
2023-05-23T23:09:34.845Z,19.20
2023-05-23T23:12:03.744Z,19.10
2023-05-23T23:14:35.351Z,19.00
2023-05-23T23:17:05.272Z,19.00
2023-05-23T23:19:35.274Z,19.00
2023-05-23T23:22:03.444Z,19.00
2023-05-23T23:24:31.797Z,18.90
2023-05-23T23:27:03.738Z,18.90
2023-05-23T23:29:31.817Z,18.90
2023-05-23T23:32:00.893Z,18.90
2023-05-23T23:34:30.811Z,18.90
2023-05-23T23:36:59.087Z,18.90
2023-05-23T23:39:27.242Z,18.80
2023-05-23T23:41:55.377Z,18.80
2023-05-23T23:44:23.515Z,18.80
2023-05-23T23:46:51.875Z,18.80
2023-05-23T23:49:20.482Z,18.80
2023-05-23T23:51:50.019Z,18.70
2023-05-23T23:54:18.203Z,18.80
2023-05-23T23:56:46.359Z,18.70
2023-05-23T23:59:15.744Z,18.70
